Terminal Aerodrome Forecast
Issued by NWS

Home | Current Version | Previous Version | Text Only | Print | Product List | Glossary On
Versions: 1 2 3 4 5 6 7 8 9 10 11 12 13 14 15 16 17 18 19 20 21 22 23 24 25 26 27 28 29 30
000
FTUS45 KBYZ 180130 AAB
TAFLVM
TAF AMD
KLVM 180130Z 1802/1824 23011KT P6SM SCT100 BKN250
     FM180900 23011KT P6SM VCSH BKN070 OVC100
     FM181200 26022G30KT P6SM -SHRA BKN070 OVC100
     FM181800 30012KT P6SM -SHRA SCT020 BKN070 OVC100=

USA.gov is the U.S. government's official web portal to all federal, state and local government web resources and services.